Time;durP1;ratioP1;P1;durP2;ratioP2;P2;SDS_P1;SDS_P2;PMS_P1;PMS_P2;Temp;Humidity;BMP_temperature;BMP_pressure;BME280_temperature;BME280_humidity;BME280_pressure;Samples;Min_cycle;Max_cycle;Signal;HPM_P1;HPM_P2
2022/07/22 00:02:09;;;;;;;3.83;3.30;;;;;;;26.35;45.16;94725.22;5033830;28;20192;-84
2022/07/22 00:04:36;;;;;;;8.20;3.45;;;;;;;26.31;45.12;94718.06;5033265;28;20188;-82
2022/07/22 00:07:05;;;;;;;4.32;3.22;;;;;;;25.92;44.78;94674.09;5033266;28;20710;-82
2022/07/22 00:09:32;;;;;;;5.85;3.28;;;;;;;26.25;44.92;94723.22;5033693;28;20196;-81
2022/07/22 00:11:58;;;;;;;9.48;3.72;;;;;;;26.23;44.87;94727.09;5032972;28;20246;-84
2022/07/22 00:14:25;;;;;;;12.00;3.58;;;;;;;26.17;45.15;94723.59;5033154;28;20625;-78
2022/07/22 00:16:52;;;;;;;8.93;3.67;;;;;;;26.16;44.93;94723.81;5032634;28;20199;-80
2022/07/22 00:19:19;;;;;;;4.60;3.58;;;;;;;26.15;45.17;94724.84;5033915;28;20187;-81
2022/07/22 00:21:46;;;;;;;6.28;3.42;;;;;;;26.10;45.20;94728.16;5033028;28;20187;-79
2022/07/22 00:24:14;;;;;;;4.63;3.33;;;;;;;26.08;45.04;94726.81;5033608;28;20710;-80
2022/07/22 00:26:41;;;;;;;6.57;3.97;;;;;;;26.07;45.07;94733.88;5035248;28;20223;-80
2022/07/22 00:29:10;;;;;;;4.13;3.17;;;;;;;26.05;45.14;94735.94;5033342;28;20199;-82
2022/07/22 00:31:37;;;;;;;7.55;3.75;;;;;;;26.02;45.14;94739.81;5033368;28;20188;-83
2022/07/22 00:34:04;;;;;;;7.97;3.72;;;;;;;26.02;45.50;94739.03;5048030;28;20187;-79
2022/07/22 00:36:32;;;;;;;5.18;3.50;;;;;;;25.99;45.43;94734.25;5055503;28;20210;-78
2022/07/22 00:38:59;;;;;;;10.57;4.20;;;;;;;25.96;45.75;94735.50;5055291;28;20171;-80
2022/07/22 00:41:27;;;;;;;4.68;3.70;;;;;;;25.92;46.06;94738.84;5053726;28;20187;-79
2022/07/22 00:43:58;;;;;;;4.07;3.72;;;;;;;25.81;45.91;94723.91;5056128;28;20184;-78
2022/07/22 00:46:26;;;;;;;8.50;3.83;;;;;;;25.82;45.89;94722.88;5056195;28;20215;-78
2022/07/22 00:48:53;;;;;;;5.68;3.38;;;;;;;25.85;46.15;94738.94;5054430;28;20208;-80
2022/07/22 00:51:21;;;;;;;5.80;3.47;;;;;;;25.81;46.18;94740.44;5053013;28;20203;-82
2022/07/22 00:53:48;;;;;;;3.90;3.38;;;;;;;25.77;46.39;94742.72;5039840;28;20199;-79
2022/07/22 00:56:17;;;;;;;7.65;3.90;;;;;;;25.58;46.75;94725.53;5046388;28;20196;-81
2022/07/22 00:58:47;;;;;;;5.18;3.97;;;;;;;25.63;46.94;94735.31;5032948;28;20275;-81
2022/07/22 01:01:14;;;;;;;6.13;3.88;;;;;;;25.61;47.40;94737.38;5034783;28;20199;-81
2022/07/22 01:03:42;;;;;;;7.45;4.82;;;;;;;25.57;47.34;94733.63;5032008;28;20385;-79
2022/07/22 01:06:09;;;;;;;8.48;4.63;;;;;;;25.54;47.68;94732.25;5033040;28;20231;-81
2022/07/22 01:08:36;;;;;;;8.18;4.28;;;;;;;25.13;47.85;94672.97;5032586;28;20278;-80
2022/07/22 01:11:11;;;;;;;5.72;4.50;;;;;;;25.49;48.33;94729.53;5032306;28;20191;-80
2022/07/22 01:13:38;;;;;;;7.97;4.38;;;;;;;25.17;48.53;94689.81;5032017;28;20667;-81
2022/07/22 01:16:08;;;;;;;6.72;4.32;;;;;;;25.41;48.53;94733.28;5032163;28;20571;-82
2022/07/22 01:18:35;;;;;;;9.85;4.63;;;;;;;25.40;48.80;94741.38;5031906;28;20231;-82
2022/07/22 01:21:04;;;;;;;5.25;4.13;;;;;;;25.21;48.84;94719.75;5033002;28;20192;-81
2022/07/22 01:23:32;;;;;;;11.82;4.43;;;;;;;25.30;49.11;94741.13;5032238;28;20198;-82
2022/07/22 01:25:59;;;;;;;6.72;4.45;;;;;;;25.26;49.27;94746.84;5032104;28;20196;-81
2022/07/22 01:28:26;;;;;;;6.07;3.70;;;;;;;25.21;49.20;94736.25;5032224;28;20211;-81
2022/07/22 01:30:53;;;;;;;6.70;4.05;;;;;;;25.17;49.41;94729.91;5032173;28;20187;-82
2022/07/22 01:33:21;;;;;;;5.95;4.30;;;;;;;25.07;49.75;94726.22;5031764;28;20188;-81
2022/07/22 01:35:48;;;;;;;6.75;4.25;;;;;;;25.09;50.00;94729.44;5031628;28;20216;-81
2022/07/22 01:38:19;;;;;;;6.07;4.50;;;;;;;25.06;50.14;94737.69;5031639;28;20191;-83
2022/07/22 01:40:47;;;;;;;7.70;4.72;;;;;;;25.03;50.11;94736.31;5032454;28;20249;-81
2022/07/22 01:43:17;;;;;;;8.20;4.80;;;;;;;24.98;50.32;94731.78;5033614;28;20192;-83
2022/07/22 01:45:44;;;;;;;5.28;4.32;;;;;;;24.93;50.58;94733.47;5032734;28;20203;-81
2022/07/22 01:48:11;;;;;;;11.48;4.68;;;;;;;24.88;50.78;94731.53;5032578;28;20998;-83
2022/07/22 01:50:38;;;;;;;7.78;4.47;;;;;;;24.87;50.94;94736.97;5043342;28;20183;-82
2022/07/22 01:53:06;;;;;;;7.80;4.28;;;;;;;24.75;51.54;94723.91;5048228;28;20314;-81
2022/07/22 01:55:34;;;;;;;5.38;4.15;;;;;;;24.78;51.39;94736.50;5049857;28;20206;-80
2022/07/22 01:58:01;;;;;;;7.18;4.35;;;;;;;24.76;51.56;94735.94;5035425;28;20184;-81
2022/07/22 02:00:28;;;;;;;8.35;4.35;;;;;;;24.68;51.46;94720.56;5031059;28;20284;-82
2022/07/22 02:02:55;;;;;;;5.72;4.43;;;;;;;24.74;51.47;94735.38;5030847;28;20625;-82
2022/07/22 02:05:22;;;;;;;7.88;5.10;;;;;;;24.66;51.50;94733.09;5031134;28;20191;-83
2022/07/22 02:07:48;;;;;;;8.10;4.65;;;;;;;24.49;51.82;94712.03;5031073;28;20254;-82
2022/07/22 02:10:15;;;;;;;5.18;4.68;;;;;;;24.66;52.02;94746.19;5030934;28;20188;-82
2022/07/22 02:12:43;;;;;;;7.53;4.72;;;;;;;24.63;52.16;94755.25;5030623;28;20199;-82
2022/07/22 02:15:11;;;;;;;10.13;5.18;;;;;;;24.58;51.87;94746.50;5030885;28;20199;-82
2022/07/22 02:17:38;;;;;;;13.50;5.28;;;;;;;24.55;51.94;94754.78;5030911;28;20232;-82
2022/07/22 02:20:06;;;;;;;7.07;4.40;;;;;;;24.45;52.08;94737.00;5035264;28;20180;-81
2022/07/22 02:22:33;;;;;;;7.72;4.22;;;;;;;24.20;52.47;94718.81;5039171;28;20188;-83
2022/07/22 02:25:00;;;;;;;8.88;5.15;;;;;;;24.45;51.93;94761.34;5031157;28;20737;-80
2022/07/22 02:27:26;;;;;;;5.18;4.57;;;;;;;24.40;51.86;94771.66;5030882;28;20211;-80
2022/07/22 02:29:55;;;;;;;7.63;4.28;;;;;;;24.36;52.06;94757.41;5051355;28;20194;-79
2022/07/22 02:32:22;;;;;;;7.47;4.90;;;;;;;24.34;52.06;94758.63;5070474;28;20657;-80
2022/07/22 02:34:49;;;;;;;7.82;5.03;;;;;;;24.32;52.25;94758.88;5070052;28;20190;-82
2022/07/22 02:37:16;;;;;;;7.00;4.60;;;;;;;24.29;52.42;94760.09;5070803;28;20205;-83
2022/07/22 02:39:43;;;;;;;7.28;4.55;;;;;;;24.26;52.72;94760.53;5070500;28;20187;-81
2022/07/22 02:42:10;;;;;;;6.32;4.53;;;;;;;24.22;52.92;94756.78;5073482;28;20190;-80
2022/07/22 02:44:36;;;;;;;8.20;4.55;;;;;;;24.21;52.88;94757.00;5073606;28;20233;-81
2022/07/22 02:47:05;;;;;;;6.45;4.90;;;;;;;24.17;53.03;94764.47;5071434;28;20218;-80
2022/07/22 02:49:32;;;;;;;9.18;4.35;;;;;;;24.14;53.36;94761.53;5072872;28;20244;-82
2022/07/22 02:51:59;;;;;;;7.60;4.50;;;;;;;24.08;53.66;94754.53;5072661;28;20191;-82
2022/07/22 02:54:25;;;;;;;13.52;4.65;;;;;;;24.02;53.70;94749.19;5070709;28;20202;-81
2022/07/22 02:56:52;;;;;;;6.95;4.65;;;;;;;23.98;53.78;94752.47;5070328;28;20201;-81
2022/07/22 02:59:19;;;;;;;6.72;4.82;;;;;;;23.53;53.88;94688.25;5070332;28;20190;-82
2022/07/22 03:01:46;;;;;;;9.82;4.78;;;;;;;23.61;54.02;94708.03;5069942;28;20194;-82
2022/07/22 03:04:14;;;;;;;7.50;4.55;;;;;;;23.86;53.89;94744.56;5070526;28;20187;-81
2022/07/22 03:06:41;;;;;;;10.60;4.22;;;;;;;23.83;54.17;94749.41;5070309;28;20194;-81
2022/07/22 03:09:08;;;;;;;7.88;4.75;;;;;;;23.78;54.01;94743.03;5070267;28;20194;-80
2022/07/22 03:11:36;;;;;;;9.45;4.20;;;;;;;23.71;54.11;94744.13;5070414;28;20201;-81
2022/07/22 03:14:03;;;;;;;8.50;4.35;;;;;;;23.71;54.06;94747.53;5070356;28;20178;-83
2022/07/22 03:16:30;;;;;;;9.45;4.65;;;;;;;23.68;54.46;94752.41;5070349;28;20198;-81
2022/07/22 03:19:01;;;;;;;7.85;4.78;;;;;;;23.65;54.40;94756.22;5073208;28;20229;-82
2022/07/22 03:21:29;;;;;;;10.65;4.78;;;;;;;23.63;54.60;94752.22;5070554;28;20190;-79
2022/07/22 03:23:56;;;;;;;6.32;4.30;;;;;;;23.60;54.73;94763.09;5071417;28;20194;-81
2022/07/22 03:26:25;;;;;;;9.90;5.13;;;;;;;23.58;54.84;94750.25;5074107;28;20634;-80
2022/07/22 03:28:52;;;;;;;8.65;5.05;;;;;;;23.54;55.05;94749.91;5073819;28;20222;-82
2022/07/22 03:31:19;;;;;;;6.82;4.88;;;;;;;23.47;55.10;94745.75;5073826;28;20194;-83
2022/07/22 03:33:46;;;;;;;9.52;5.05;;;;;;;23.19;54.84;94707.88;5073597;28;20197;-80
2022/07/22 03:36:12;;;;;;;5.03;4.22;;;;;;;23.47;55.11;94754.38;5073798;28;20198;-81
2022/07/22 03:38:41;;;;;;;7.18;4.60;;;;;;;23.45;54.80;94761.63;5073569;28;20194;-80
2022/07/22 03:41:08;;;;;;;10.57;4.30;;;;;;;23.43;54.55;94758.44;5073472;28;20201;-81
2022/07/22 03:43:35;;;;;;;6.55;4.72;;;;;;;23.41;54.40;94757.84;5073708;28;20213;-82
2022/07/22 03:46:02;;;;;;;7.40;4.55;;;;;;;23.34;54.50;94756.31;5073503;28;20194;-82
2022/07/22 03:48:29;;;;;;;7.40;4.85;;;;;;;23.33;54.66;94752.13;5073306;28;20624;-82
2022/07/22 03:50:55;;;;;;;11.40;5.35;;;;;;;23.36;55.06;94762.94;5073291;28;20198;-82
2022/07/22 03:53:22;;;;;;;10.15;5.13;;;;;;;23.36;55.18;94769.94;5073848;28;20197;-81
2022/07/22 03:55:50;;;;;;;9.20;5.18;;;;;;;23.36;55.26;94770.75;5073478;28;20621;-80
2022/07/22 03:58:18;;;;;;;8.63;5.10;;;;;;;23.34;55.97;94769.38;5072969;28;20194;-81
2022/07/22 04:00:45;;;;;;;14.18;5.40;;;;;;;23.32;56.15;94772.19;5072841;28;20687;-81
2022/07/22 04:03:12;;;;;;;14.57;5.68;;;;;;;23.34;56.37;94779.81;5073290;28;20197;-81
2022/07/22 04:05:38;;;;;;;15.90;5.53;;;;;;;23.35;56.31;94778.78;5073118;28;20573;-82
2022/07/22 04:08:05;;;;;;;14.55;6.00;;;;;;;23.37;56.12;94776.78;5054992;28;20295;-83
2022/07/22 04:10:33;;;;;;;16.17;6.55;;;;;;;23.20;56.07;94747.81;5072878;28;20577;-79
2022/07/22 04:13:01;;;;;;;17.10;7.10;;;;;;;23.42;56.02;94774.31;5073457;28;20194;-82
2022/07/22 04:15:29;;;;;;;15.25;6.68;;;;;;;23.45;56.07;94787.75;5074018;28;20186;-81
2022/07/22 04:17:56;;;;;;;8.95;6.05;;;;;;;23.28;56.18;94765.81;5072558;28;20278;-81
2022/07/22 04:20:23;;;;;;;14.43;6.20;;;;;;;23.37;56.25;94785.41;5072844;28;20190;-82
2022/07/22 04:22:50;;;;;;;11.15;6.88;;;;;;;23.39;56.28;94790.41;5072900;28;20249;-80
2022/07/22 04:25:17;;;;;;;14.85;6.18;;;;;;;23.38;56.26;94783.59;5072602;28;20178;-81
2022/07/22 04:27:44;;;;;;;12.27;6.20;;;;;;;23.37;56.46;94784.59;5072341;28;20616;-79
2022/07/22 04:30:15;;;;;;;9.68;5.85;;;;;;;23.39;56.64;94787.78;5072664;28;20642;-80
2022/07/22 04:32:42;;;;;;;13.30;6.80;;;;;;;23.41;56.12;94788.38;5072666;28;20201;-81
2022/07/22 04:35:09;;;;;;;10.68;5.82;;;;;;;23.45;55.61;94790.34;5072416;28;20178;-80
2022/07/22 04:37:36;;;;;;;14.00;6.60;;;;;;;23.45;55.29;94800.78;5072511;28;20194;-82
2022/07/22 04:40:07;;;;;;;10.77;5.85;;;;;;;23.34;54.96;94771.97;5072471;28;20189;-78
2022/07/22 04:42:34;;;;;;;10.57;5.80;;;;;;;23.45;54.97;94798.19;5072523;28;20222;-80
2022/07/22 04:45:01;;;;;;;13.82;6.25;;;;;;;23.45;54.88;94802.59;5073350;28;20194;-82
2022/07/22 04:47:29;;;;;;;9.77;6.32;;;;;;;23.34;54.80;94790.25;5071882;28;20187;-80
2022/07/22 04:49:56;;;;;;;16.80;7.30;;;;;;;23.45;55.05;94805.22;5072040;28;20197;-81
2022/07/22 04:52:22;;;;;;;11.57;5.72;;;;;;;23.25;55.13;94776.66;5073752;28;20799;-79
2022/07/22 04:54:49;;;;;;;10.40;6.35;;;;;;;23.45;54.96;94806.00;5078299;28;20189;-80
2022/07/22 04:57:16;;;;;;;11.95;6.43;;;;;;;23.47;55.05;94805.78;5076796;28;20182;-80
2022/07/22 04:59:43;;;;;;;11.30;6.18;;;;;;;23.49;55.02;94807.19;5075886;28;20191;-81
2022/07/22 05:02:10;;;;;;;18.08;5.55;;;;;;;23.52;55.12;94809.34;5077183;28;20200;-82
2022/07/22 05:04:38;;;;;;;7.97;5.40;;;;;;;23.56;54.95;94816.75;5076851;28;20576;-80
2022/07/22 05:07:05;;;;;;;12.32;5.82;;;;;;;23.60;54.69;94812.69;5076523;28;20197;-82
2022/07/22 05:09:32;;;;;;;10.23;5.53;;;;;;;23.34;54.66;94764.94;5071932;28;20206;-81
2022/07/22 05:11:59;;;;;;;7.65;5.15;;;;;;;23.60;54.34;94804.88;5070957;28;20191;-78
2022/07/22 05:14:27;;;;;;;7.38;5.22;;;;;;;23.61;54.54;94802.03;5072284;28;20198;-80
2022/07/22 05:16:53;;;;;;;12.23;5.55;;;;;;;23.77;54.81;94816.38;5071641;28;20198;-81
2022/07/22 05:19:20;;;;;;;12.85;5.70;;;;;;;23.87;54.44;94821.09;5071328;28;20187;-82
2022/07/22 05:21:48;;;;;;;12.07;5.25;;;;;;;23.95;55.23;94816.38;5071589;28;20191;-82
2022/07/22 05:24:15;;;;;;;9.10;4.97;;;;;;;23.84;55.04;94784.97;5071165;28;20199;-81
2022/07/22 05:26:42;;;;;;;10.18;5.28;;;;;;;24.22;54.36;94827.34;5071521;28;20677;-79
2022/07/22 05:29:09;;;;;;;13.07;4.93;;;;;;;24.33;54.16;94820.59;5071460;28;20229;-81
2022/07/22 05:31:36;;;;;;;12.15;6.40;;;;;;;24.36;53.60;94814.91;5071021;28;20182;-80
2022/07/22 05:34:03;;;;;;;9.27;5.22;;;;;;;24.63;53.59;94822.44;5053390;28;20215;-79
2022/07/22 05:36:30;;;;;;;19.25;5.28;;;;;;;24.81;52.95;94830.25;5071283;28;20182;-79
2022/07/22 05:38:58;;;;;;;8.48;5.05;;;;;;;24.89;52.52;94827.31;5071586;28;20186;-79
2022/07/22 05:41:25;;;;;;;12.88;5.70;;;;;;;24.94;51.84;94830.06;5071212;28;20197;-79
2022/07/22 05:43:52;;;;;;;17.45;5.22;;;;;;;25.09;51.54;94824.44;5071164;28;20201;-78
2022/07/22 05:46:18;;;;;;;9.35;5.68;;;;;;;25.11;51.25;94830.25;5070479;28;20186;-79
2022/07/22 05:48:45;;;;;;;14.05;5.95;;;;;;;25.25;52.03;94823.78;5070667;28;20622;-79
2022/07/22 05:51:13;;;;;;;17.77;5.75;;;;;;;25.22;51.57;94786.81;5071052;28;20190;-79
2022/07/22 05:53:42;;;;;;;8.63;5.45;;;;;;;25.56;51.11;94816.66;5071019;28;20191;-79
2022/07/22 05:56:11;;;;;;;7.55;5.95;;;;;;;25.63;51.03;94803.41;5070712;28;20190;-79
2022/07/22 05:58:38;;;;;;;11.25;6.10;;;;;;;25.80;50.89;94814.03;5070874;28;20201;-79
2022/07/22 06:01:05;;;;;;;12.00;5.68;;;;;;;25.73;50.47;94816.72;5070681;28;20198;-79
2022/07/22 06:03:32;;;;;;;10.43;5.03;;;;;;;25.57;50.76;94794.66;5070946;28;20201;-79
2022/07/22 06:06:01;;;;;;;7.53;4.88;;;;;;;25.94;51.35;94818.78;5071087;28;20178;-78
2022/07/22 06:08:29;;;;;;;14.15;5.65;;;;;;;25.92;50.54;94799.91;5070652;28;20235;-78
2022/07/22 06:10:55;;;;;;;16.23;5.88;;;;;;;26.19;50.34;94818.53;5070432;28;20696;-80
2022/07/22 06:13:24;;;;;;;13.40;5.70;;;;;;;26.37;50.55;94817.56;5070588;28;20198;-78
2022/07/22 06:15:50;;;;;;;14.10;5.05;;;;;;;26.46;49.60;94818.03;5070939;28;20205;-78
2022/07/22 06:18:17;;;;;;;11.07;5.35;;;;;;;26.53;49.36;94813.44;5070261;28;20233;-79
2022/07/22 06:20:44;;;;;;;9.35;5.60;;;;;;;26.71;49.91;94815.88;5065910;28;20253;-78
2022/07/22 06:23:12;;;;;;;11.55;5.97;;;;;;;26.67;49.04;94785.88;5055018;28;20202;-77
2022/07/22 06:25:39;;;;;;;11.52;6.03;;;;;;;27.08;49.36;94827.81;5050266;28;20217;-78
2022/07/22 06:28:06;;;;;;;11.88;5.80;;;;;;;27.06;48.13;94793.09;5062247;28;20451;-82
2022/07/22 06:30:34;;;;;;;12.80;5.70;;;;;;;27.30;47.78;94826.09;5070264;28;20187;-79
2022/07/22 06:33:01;;;;;;;12.30;5.50;;;;;;;27.13;47.18;94785.91;5069893;28;20187;-83
2022/07/22 06:35:28;;;;;;;10.18;5.18;;;;;;;27.38;47.36;94809.16;5070168;28;20183;-84
2022/07/22 06:37:56;;;;;;;13.77;6.55;;;;;;;27.62;46.51;94825.50;5069405;28;20186;-77
2022/07/22 06:40:23;;;;;;;14.43;5.80;;;;;;;27.51;46.70;94801.72;5055602;28;20273;-78
2022/07/22 06:42:50;;;;;;;11.13;5.22;;;;;;;27.68;46.50;94827.19;5049121;28;20186;-79
2022/07/22 06:45:17;;;;;;;26.10;6.03;;;;;;;27.72;46.40;94821.25;5049788;28;20187;-81
2022/07/22 06:47:45;;;;;;;18.67;5.10;;;;;;;27.85;46.50;94822.75;5049697;28;20195;-79
2022/07/22 06:50:12;;;;;;;10.32;5.28;;;;;;;27.80;46.48;94812.13;5048704;28;20227;-77
2022/07/22 06:52:40;;;;;;;14.32;5.65;;;;;;;27.99;46.12;94825.81;5049703;28;20191;-79
2022/07/22 06:55:08;;;;;;;16.80;5.43;;;;;;;28.03;45.80;94815.59;5049606;28;20222;-79
2022/07/22 06:57:35;;;;;;;13.20;5.72;;;;;;;28.11;45.82;94820.41;5049967;28;20188;-79
2022/07/22 07:00:03;;;;;;;7.85;5.18;;;;;;;27.82;46.40;94762.75;5053975;28;20695;-78
2022/07/22 07:02:35;;;;;;;10.18;4.82;;;;;;;26.56;45.71;94553.28;5053664;28;20183;-80
2022/07/22 07:05:04;;;;;;;8.13;4.53;;;;;;;28.49;44.87;94823.00;5052530;28;20195;-82
2022/07/22 07:07:31;;;;;;;15.02;4.63;;;;;;;28.61;45.41;94828.16;5053862;28;20205;-83
2022/07/22 07:09:58;;;;;;;14.15;5.43;;;;;;;28.03;43.54;94726.22;5053401;28;20210;-81
2022/07/22 07:12:25;;;;;;;8.48;4.53;;;;;;;28.78;43.65;94832.53;5053251;28;20202;-80
2022/07/22 07:14:51;;;;;;;5.93;4.10;;;;;;;28.83;43.62;94830.75;5053325;28;20198;-83
2022/07/22 07:17:18;;;;;;;7.00;4.65;;;;;;;28.86;43.80;94814.44;5071180;28;20224;-80
2022/07/22 07:19:45;;;;;;;11.90;4.32;;;;;;;29.17;43.46;94827.94;5072661;28;20201;-80
2022/07/22 07:22:13;;;;;;;6.80;4.72;;;;;;;29.11;43.06;94807.88;5073202;28;20190;-81
2022/07/22 07:24:40;;;;;;;11.82;4.80;;;;;;;29.39;42.60;94841.81;5073311;28;20194;-82
2022/07/22 07:27:07;;;;;;;8.40;4.78;;;;;;;29.25;42.90;94796.66;5073060;28;20194;-82
2022/07/22 07:29:34;;;;;;;8.13;4.28;;;;;;;29.32;43.31;94783.28;5073416;28;20229;-83
2022/07/22 07:32:00;;;;;;;11.52;4.32;;;;;;;29.53;43.21;94792.09;5073586;28;20190;-81
2022/07/22 07:34:27;;;;;;;7.45;3.83;;;;;;;29.41;43.60;94749.34;5074307;28;20193;-82
2022/07/22 07:36:54;;;;;;;12.48;4.90;;;;;;;30.10;41.77;94825.69;5073401;28;20191;-80
2022/07/22 07:39:23;;;;;;;8.80;4.22;;;;;;;30.19;42.49;94823.38;5074497;28;20183;-80
2022/07/22 07:41:51;;;;;;;6.57;3.88;;;;;;;30.31;42.12;94825.78;5073812;28;20195;-82
2022/07/22 07:44:17;;;;;;;12.73;4.80;;;;;;;30.22;42.00;94805.19;5076633;28;20194;-82
2022/07/22 07:46:44;;;;;;;4.50;4.10;;;;;;;30.44;41.26;94820.03;5075871;28;20350;-82
2022/07/22 07:49:14;;;;;;;7.97;4.43;;;;;;;30.63;41.02;94837.00;5076526;28;20206;-80
2022/07/22 07:51:59;;;;;;;8.23;4.00;;;;;;;29.53;40.46;94648.97;5074890;28;20193;-82
2022/07/22 07:54:27;;;;;;;9.13;4.20;;;;;;;30.87;40.44;94831.25;5079312;28;20198;-79
2022/07/22 07:56:54;;;;;;;8.13;4.60;;;;;;;30.96;39.77;94841.06;5075453;28;20237;-83
2022/07/22 07:59:22;;;;;;;9.43;3.97;;;;;;;31.01;39.29;94834.22;5081693;28;20190;-78
2022/07/22 08:01:49;;;;;;;12.82;3.72;;;;;;;31.07;39.35;94836.59;5082984;28;20190;-80
2022/07/22 08:04:15;;;;;;;7.03;3.67;;;;;;;31.19;40.03;94829.22;5076494;28;20198;-79
2022/07/22 08:06:42;;;;;;;5.97;3.90;;;;;;;31.22;38.64;94830.53;5071898;28;20265;-80
2022/07/22 08:09:10;;;;;;;6.63;4.30;;;;;;;31.38;38.05;94836.63;5071364;28;20464;-78
2022/07/22 08:11:38;;;;;;;12.00;4.35;;;;;;;31.42;37.40;94841.13;5072159;28;20186;-79
2022/07/22 08:14:05;;;;;;;8.02;3.80;;;;;;;31.48;37.55;94840.09;5071668;28;20190;-82
2022/07/22 08:16:32;;;;;;;11.52;4.00;;;;;;;31.55;37.77;94839.00;5061125;28;20179;-80
2022/07/22 08:19:01;;;;;;;4.45;4.05;;;;;;;31.61;36.94;94843.25;5069585;28;20261;-79
2022/07/22 08:21:28;;;;;;;7.10;3.75;;;;;;;31.66;36.93;94838.75;5072162;28;20190;-82
2022/07/22 08:23:55;;;;;;;6.80;3.42;;;;;;;31.72;36.05;94831.59;5071922;28;20190;-78
2022/07/22 08:26:22;;;;;;;4.55;3.58;;;;;;;31.85;35.39;94836.34;5056717;28;20201;-78
2022/07/22 08:28:50;;;;;;;6.93;4.00;;;;;;;31.91;35.92;94834.47;5051545;28;20214;-79
2022/07/22 08:31:17;;;;;;;4.03;3.53;;;;;;;32.01;35.00;94842.41;5051281;28;20285;-81
2022/07/22 08:33:44;;;;;;;6.85;3.50;;;;;;;31.67;34.70;94790.06;5051143;28;20590;-79
2022/07/22 08:36:11;;;;;;;7.57;3.42;;;;;;;31.97;34.06;94828.94;5051925;28;20179;-80
2022/07/22 08:38:38;;;;;;;7.65;3.65;;;;;;;31.82;34.88;94822.84;5051626;28;20198;-79
2022/07/22 08:41:05;;;;;;;5.80;3.50;;;;;;;31.76;34.83;94808.03;5050983;28;20191;-80
2022/07/22 08:43:35;;;;;;;5.82;3.42;;;;;;;31.98;34.94;94841.09;5051105;28;20193;-79
2022/07/22 08:46:04;;;;;;;7.38;3.33;;;;;;;32.06;34.61;94845.03;5051849;28;20187;-79
2022/07/22 08:48:31;;;;;;;3.42;3.10;;;;;;;31.98;35.02;94816.47;5051311;28;20206;-79
2022/07/22 08:50:58;;;;;;;8.45;3.75;;;;;;;32.05;34.91;94809.06;5051601;28;20667;-81
2022/07/22 08:53:25;;;;;;;5.68;3.92;;;;;;;32.33;35.07;94841.25;5051543;28;20252;-78
2022/07/22 08:55:52;;;;;;;4.53;4.07;;;;;;;32.31;35.56;94827.50;5051644;28;20194;-78
2022/07/22 08:58:19;;;;;;;6.30;3.88;;;;;;;32.29;35.32;94811.88;5046572;28;20578;-78
2022/07/22 09:00:47;;;;;;;5.57;3.53;;;;;;;32.27;34.91;94800.78;5028811;28;20192;-77
2022/07/22 09:03:25;;;;;;;6.93;3.70;;;;;;;32.56;34.15;94838.03;5029951;28;20184;-79
2022/07/22 09:05:52;;;;;;;6.40;3.60;;;;;;;32.50;34.51;94817.13;5029435;28;20195;-80
2022/07/22 09:08:19;;;;;;;10.77;4.20;;;;;;;32.67;34.67;94844.03;5029107;28;20265;-80
2022/07/22 09:10:46;;;;;;;7.07;3.58;;;;;;;32.74;34.13;94849.84;5028515;28;20560;-81
2022/07/22 09:13:16;;;;;;;4.28;3.47;;;;;;;32.83;34.47;94842.13;5028577;28;20191;-79
2022/07/22 09:15:48;;;;;;;4.22;3.70;;;;;;;32.90;33.45;94859.28;5037682;28;20817;-78
2022/07/22 09:18:15;;;;;;;6.93;3.55;;;;;;;32.94;33.24;94856.91;5068359;28;20231;-79
2022/07/22 09:20:44;;;;;;;10.10;3.47;;;;;;;32.97;32.94;94856.34;5067843;28;20190;-78
2022/07/22 09:23:13;;;;;;;5.28;3.58;;;;;;;32.98;33.36;94849.97;5068245;28;20190;-81
2022/07/22 09:25:41;;;;;;;3.85;3.55;;;;;;;33.00;33.36;94853.16;5068140;28;20597;-78
2022/07/22 09:28:15;;;;;;;4.40;3.53;;;;;;;32.96;33.65;94849.47;5068212;28;20190;-78
2022/07/22 09:30:49;;;;;;;6.70;3.40;;;;;;;33.04;33.48;94840.94;5068464;28;20213;-80
2022/07/22 09:33:16;;;;;;;4.60;3.42;;;;;;;32.96;33.53;94831.72;5068066;28;20793;-79
2022/07/22 09:35:46;;;;;;;6.40;3.80;;;;;;;33.09;32.78;94846.22;5068463;28;20193;-81
2022/07/22 09:38:17;;;;;;;5.65;3.70;;;;;;;32.36;32.78;94743.56;5070099;28;20197;-82
2022/07/22 09:40:46;;;;;;;6.68;3.40;;;;;;;32.39;32.47;94739.59;5070171;28;20301;-80
2022/07/22 09:43:15;;;;;;;5.03;3.13;;;;;;;32.84;32.64;94807.38;5069886;28;20187;-82
2022/07/22 09:45:48;;;;;;;8.95;4.20;;;;;;;33.07;32.88;94835.09;5069880;28;20182;-83
2022/07/22 09:48:17;;;;;;;4.72;3.53;;;;;;;33.12;32.96;94840.38;5075183;28;20190;-80
2022/07/22 09:50:48;;;;;;;8.55;3.80;;;;;;;32.49;32.51;94726.28;5074318;28;20222;-78
2022/07/22 09:53:16;;;;;;;6.80;3.70;;;;;;;33.05;32.87;94804.63;5069797;28;20229;-77
2022/07/22 09:55:43;;;;;;;5.00;3.60;;;;;;;33.27;32.45;94830.72;5069397;28;20798;-79
2022/07/22 09:58:11;;;;;;;4.75;3.42;;;;;;;33.30;32.46;94830.97;5068658;28;20178;-78
2022/07/22 10:00:39;;;;;;;12.02;3.85;;;;;;;33.10;32.69;94797.44;5068057;28;20287;-79
2022/07/22 10:03:08;;;;;;;5.75;3.80;;;;;;;33.31;33.06;94829.88;5068254;28;20201;-82
2022/07/22 10:05:39;;;;;;;7.50;3.35;;;;;;;33.38;32.74;94826.94;5068782;28;20193;-81
2022/07/22 10:08:08;;;;;;;5.72;3.78;;;;;;;32.93;32.61;94755.41;5068743;28;20197;-82
2022/07/22 10:10:36;;;;;;;7.65;3.80;;;;;;;33.42;32.38;94823.44;5067549;28;20222;-84
2022/07/22 10:13:05;;;;;;;4.32;3.78;;;;;;;33.23;32.01;94796.00;5068040;28;20646;-81
2022/07/22 10:15:34;;;;;;;4.35;3.58;;;;;;;33.41;32.14;94835.09;5065423;28;20270;-83
2022/07/22 10:18:04;;;;;;;5.13;3.75;;;;;;;33.14;32.31;94779.91;5058397;28;20776;-84
2022/07/22 10:20:31;;;;;;;8.52;3.65;;;;;;;33.19;32.42;94787.03;5067235;28;20206;-80
2022/07/22 10:22:59;;;;;;;4.85;3.50;;;;;;;33.34;32.39;94816.06;5067906;28;20627;-80
2022/07/22 10:25:30;;;;;;;4.78;3.50;;;;;;;33.35;32.18;94816.88;5067458;28;20194;-82
2022/07/22 10:27:58;;;;;;;4.50;3.47;;;;;;;33.28;32.60;94798.63;5067860;28;20192;-82
2022/07/22 10:30:27;;;;;;;4.68;3.65;;;;;;;33.41;32.79;94810.44;5067424;28;20218;-81
2022/07/22 10:33:08;;;;;;;6.30;3.72;;;;;;;33.44;32.71;94796.66;5067405;28;20203;-82
2022/07/22 10:35:38;;;;;;;6.60;4.10;;;;;;;33.48;32.38;94803.00;5069648;28;20608;-84
2022/07/22 10:38:08;;;;;;;4.70;3.33;;;;;;;33.22;31.99;94779.31;5067719;28;20273;-83
2022/07/22 10:40:50;;;;;;;3.63;3.15;;;;;;;33.42;31.58;94810.19;5067216;28;20202;-82
2022/07/22 10:43:18;;;;;;;4.03;3.63;;;;;;;33.39;32.00;94812.59;5067604;28;20190;-83
2022/07/22 10:45:51;;;;;;;5.72;3.60;;;;;;;33.36;31.85;94803.31;5067666;28;20182;-83
2022/07/22 10:48:20;;;;;;;6.65;4.00;;;;;;;33.36;32.06;94800.66;5066707;28;20331;-81
2022/07/22 10:50:54;;;;;;;8.77;3.85;;;;;;;33.36;32.16;94805.19;5067776;28;20214;-81
2022/07/22 10:53:23;;;;;;;5.15;3.65;;;;;;;33.28;32.27;94805.78;5069946;28;20222;-80
2022/07/22 10:56:14;;;;;;;5.85;3.38;;;;;;;33.31;32.03;94802.59;5072255;28;20574;-80
2022/07/22 10:58:44;;;;;;;8.65;4.15;;;;;;;33.37;32.26;94809.41;5072688;28;20240;-87
2022/07/22 11:01:13;;;;;;;4.35;3.95;;;;;;;33.38;31.94;94811.03;5069822;28;20190;-81
2022/07/22 11:03:41;;;;;;;5.82;4.38;;;;;;;31.89;32.10;94574.72;5067242;28;20182;-78
2022/07/22 11:06:16;;;;;;;6.95;4.07;;;;;;;33.37;32.12;94799.59;5067583;28;20186;-83
2022/07/22 11:08:46;;;;;;;8.27;4.20;;;;;;;33.34;32.27;94802.81;5073162;28;20201;-79
2022/07/22 11:11:14;;;;;;;6.32;3.95;;;;;;;33.35;32.25;94799.09;5074912;28;20225;-77
2022/07/22 11:13:44;;;;;;;6.65;3.40;;;;;;;33.36;32.67;94795.38;5074391;28;20209;-79
2022/07/22 11:16:19;;;;;;;5.82;3.63;;;;;;;33.35;32.34;94793.00;5074534;28;20175;-79
2022/07/22 11:18:51;;;;;;;10.27;3.83;;;;;;;32.38;32.43;94646.13;5076733;28;20225;-81
2022/07/22 11:21:20;;;;;;;5.35;3.75;;;;;;;33.36;32.68;94791.94;5076930;28;20198;-88
2022/07/22 11:23:50;;;;;;;5.82;3.42;;;;;;;33.38;32.23;94795.09;5073560;28;20201;-80
2022/07/22 11:26:21;;;;;;;5.35;4.22;;;;;;;33.38;32.63;94781.84;5075083;28;20183;-83
2022/07/22 11:28:48;;;;;;;7.45;3.97;;;;;;;33.40;32.38;94793.75;5070101;28;20206;-86
2022/07/22 11:31:18;;;;;;;5.03;3.45;;;;;;;33.39;32.11;94772.81;5070816;28;20267;-83
2022/07/22 11:33:45;;;;;;;7.10;3.83;;;;;;;33.41;32.10;94787.38;5071443;28;20182;-88
2022/07/22 11:36:13;;;;;;;4.03;3.28;;;;;;;33.47;31.79;94779.41;5071575;28;20194;-87